Time;durP1;ratioP1;P1;durP2;ratioP2;P2;SDS_P1;SDS_P2;PMS_P1;PMS_P2;Temp;Humidity;BMP_temperature;BMP_pressure;BME280_temperature;BME280_humidity;BME280_pressure;Samples;Min_cycle;Max_cycle;Signal;HPM_P1;HPM_P2
2021/10/27 00:03:49;;;;;;;5.43;3.70;;;22.90;53.80;;;;;;31877812;27;20059;-51
2021/10/27 00:18:51;;;;;;;4.10;3.33;;;22.80;54.40;;;;;;31896514;28;20047;-50
2021/10/27 00:33:54;;;;;;;4.22;3.10;;;22.70;54.50;;;;;;31892999;28;20555;-47
2021/10/27 00:48:55;;;;;;;3.13;1.60;;;22.60;55.20;;;;;;31908208;27;20059;-49
2021/10/27 01:03:58;;;;;;;2.53;1.80;;;22.80;55.60;;;;;;31924952;27;20052;-51
2021/10/27 01:19:00;;;;;;;3.92;1.60;;;23.20;55.30;;;;;;31915792;27;20059;-54
2021/10/27 01:34:02;;;;;;;2.05;1.85;;;23.20;55.30;;;;;;31904699;27;20048;-53
2021/10/27 01:49:07;;;;;;;1.60;1.25;;;23.20;55.30;;;;;;31910681;27;20055;-49
2021/10/27 02:04:09;;;;;;;1.25;1.15;;;23.10;55.50;;;;;;31898700;27;20075;-52
2021/10/27 02:19:11;;;;;;;1.65;1.50;;;23.10;55.30;;;;;;31897291;27;20066;-54
2021/10/27 02:34:13;;;;;;;2.25;1.38;;;22.90;54.70;;;;;;31893389;27;20122;-50
2021/10/27 02:49:15;;;;;;;2.45;1.40;;;22.90;55.20;;;;;;31895050;27;20081;-52
2021/10/27 03:04:17;;;;;;;1.95;1.00;;;22.80;55.70;;;;;;31893315;27;20078;-50
2021/10/27 03:19:20;;;;;;;1.38;0.70;;;22.70;55.80;;;;;;31903505;27;20059;-48
2021/10/27 03:34:22;;;;;;;1.20;1.10;;;22.90;56.20;;;;;;31905293;27;20107;-50
2021/10/27 03:49:24;;;;;;;1.13;0.77;;;23.20;56.00;;;;;;31900125;28;20107;-50
2021/10/27 04:04:26;;;;;;;2.67;1.00;;;23.30;55.90;;;;;;31927896;27;20085;-43
2021/10/27 04:19:28;;;;;;;1.77;0.93;;;23.20;56.10;;;;;;31890311;28;20139;-44
2021/10/27 04:34:30;;;;;;;1.15;0.98;;;23.10;56.50;;;;;;31916593;27;20091;-46
2021/10/27 04:49:32;;;;;;;10.43;1.85;;;23.20;56.80;;;;;;31912165;27;20039;-45
2021/10/27 05:04:35;;;;;;;128.57;67.40;;;23.10;57.20;;;;;;31958603;27;20084;-47
2021/10/27 05:19:38;;;;;;;42.75;23.05;;;22.70;50.80;;;;;;31930931;27;20055;-56
2021/10/27 05:34:42;;;;;;;33.65;18.48;;;22.50;50.30;;;;;;31957478;27;20095;-58
2021/10/27 06:04:46;;;;;;;48.53;27.98;;;22.90;49.20;;;;;;31981601;27;20050;-51
2021/10/27 06:19:52;;;;;;;40.20;25.58;;;22.90;49.90;;;;;;31926477;27;20086;-47
2021/10/27 06:35:00;;;;;;;61.47;45.45;;;22.80;51.80;;;;;;31967048;27;20039;-59
2021/10/27 06:50:03;;;;;;;47.03;36.95;;;22.60;47.10;;;;;;31995668;27;20066;-53
2021/10/27 07:05:30;;;;;;;41.58;30.85;;;22.60;50.50;;;;;;31882529;27;20056;-51
2021/10/27 07:20:32;;;;;;;39.65;27.35;;;22.50;50.70;;;;;;31945626;27;20098;-51
2021/10/27 07:35:47;;;;;;;42.10;26.20;;;22.50;50.80;;;;;;31950917;27;20066;-53
2021/10/27 07:50:50;;;;;;;32.83;21.98;;;22.40;50.90;;;;;;31893033;28;20076;-49
2021/10/27 08:05:56;;;;;;;25.05;18.27;;;22.40;51.20;;;;;;32029153;27;20086;-47
2021/10/27 08:20:58;;;;;;;21.83;15.73;;;22.40;50.90;;;;;;31993702;27;20095;-51
2021/10/27 08:36:00;;;;;;;19.83;14.05;;;22.90;51.10;;;;;;31963186;27;20050;-50
2021/10/27 08:51:05;;;;;;;34.85;26.75;;;23.10;51.10;;;;;;31913468;27;20095;-51
2021/10/27 10:07:54;;;;;;;27.27;22.80;;;22.60;51.90;;;;;;31930922;27;20930;-52
2021/10/27 10:23:22;;;;;;;24.42;20.13;;;22.60;51.80;;;;;;31994294;27;20043;-56
2021/10/27 11:40:14;;;;;;;13.35;9.48;;;22.50;51.10;;;;;;31901752;27;20107;-53
2021/10/27 11:55:17;;;;;;;14.95;9.48;;;22.90;51.10;;;;;;31896273;27;20048;-52
2021/10/27 12:10:39;;;;;;;19.13;9.30;;;23.00;51.40;;;;;;31878551;28;20060;-53
2021/10/27 12:25:41;;;;;;;17.83;9.20;;;23.00;51.50;;;;;;31873563;28;20048;-52
2021/10/27 12:40:45;;;;;;;14.23;8.90;;;22.90;51.70;;;;;;31924298;27;20043;-48
2021/10/27 12:56:07;;;;;;;17.15;9.70;;;22.90;51.60;;;;;;31951835;27;20047;-55
2021/10/27 13:41:38;;;;;;;16.38;12.98;;;23.10;52.50;;;;;;31999767;27;20088;-57
2021/10/27 15:59:33;;;;;;;33.40;11.90;;;23.00;51.30;;;;;;31879587;27;20075;-53
2021/10/27 16:14:35;;;;;;;41.63;14.07;;;22.90;50.60;;;;;;31887968;28;20103;-53
2021/10/27 16:29:37;;;;;;;38.35;14.13;;;22.90;51.00;;;;;;31957734;27;20098;-56
2021/10/27 16:44:42;;;;;;;30.33;14.85;;;22.90;52.30;;;;;;32028251;27;20046;-58
2021/10/27 16:59:45;;;;;;;39.35;16.40;;;23.00;54.60;;;;;;32013347;27;20084;-50
2021/10/27 17:14:47;;;;;;;33.60;15.55;;;23.00;57.30;;;;;;32002875;27;20063;-46
2021/10/27 17:29:50;;;;;;;27.33;13.68;;;23.00;58.70;;;;;;32006023;27;20047;-48
2021/10/27 17:44:52;;;;;;;22.13;12.38;;;23.00;60.70;;;;;;32007274;27;20094;-51
2021/10/27 17:59:55;;;;;;;25.10;13.00;;;23.10;62.40;;;;;;32003148;27;20047;-45
2021/10/27 18:14:59;;;;;;;19.98;11.85;;;23.10;63.20;;;;;;31991500;27;20043;-45
2021/10/27 18:45:22;;;;;;;15.82;7.10;;;23.10;64.10;;;;;;31997197;27;20662;-50
2021/10/27 19:00:54;;;;;;;12.45;6.88;;;23.40;63.80;;;;;;31602453;27;9999749;-46
2021/10/27 19:15:57;;;;;;;15.27;4.80;;;23.20;63.20;;;;;;31990818;27;20043;-52
2021/10/27 19:31:14;;;;;;;3.88;2.47;;;23.10;63.20;;;;;;31988801;27;20046;-50
2021/10/27 21:02:42;;;;;;;3.40;2.70;;;23.50;60.30;;;;;;31995950;27;20116;-53
2021/10/27 21:17:44;;;;;;;1.67;1.38;;;23.40;59.90;;;;;;32006807;27;20039;-54
2021/10/27 21:48:04;;;;;;;14.15;11.27;;;23.50;59.50;;;;;;32012002;27;20047;-57
2021/10/27 22:03:06;;;;;;;10.45;6.05;;;23.10;58.60;;;;;;32013158;27;20066;-56
2021/10/27 22:18:09;;;;;;;12.00;3.67;;;23.10;58.80;;;;;;32010282;27;20050;-55
2021/10/27 22:33:11;;;;;;;6.05;2.58;;;23.10;59.20;;;;;;31972929;27;20047;-48
2021/10/27 22:48:14;;;;;;;3.78;1.42;;;23.10;59.30;;;;;;32007207;27;20042;-57
2021/10/27 23:03:27;;;;;;;1.83;0.77;;;23.00;59.50;;;;;;32005285;27;20106;-55
2021/10/27 23:49:13;;;;;;;0.30;0.30;;;22.90;59.20;;;;;;31999784;27;20043;-52
